This is the latest recevied weather packets stored in our database for station/object W4ZHA. If no packets are shown the sender has not sent any weather packets the latest 10 day(s).
| Time | Temp. | Humidity | Pressure | Rain* | Wind** | Luminosity | Snow |
|---|---|---|---|---|---|---|---|
| 1787851437 | 30.56° C | 56% | 1015.8 hPa | 0 mm | - | 374 W/m² | - |
| 1787851133 | 30.56° C | 56% | 1015.8 hPa | 0 mm | - | 445 W/m² | - |
| 1787850828 | 30° C | 56% | 1016.1 hPa | 0 mm | - | 452 W/m² | - |
| 1787850524 | 30° C | 58% | 1016.1 hPa | 0 mm | - | 110 W/m² | - |
| 1787850219 | 31.67° C | 54% | 1016.1 hPa | 0 mm | - | 461 W/m² | - |
| 1787849919 | 30° C | 57% | 1016.1 hPa | 0 mm | - | 448 W/m² | - |
| 1787849613 | 30° C | 58% | 1016.1 hPa | 0 mm | - | 431 W/m² | - |
| 1787849313 | 30° C | 57% | 1016.1 hPa | 0 mm | - | 430 W/m² | - |
| 1787849007 | 28.89° C | 60% | 1016.1 hPa | 0 mm | - | 420 W/m² | - |
| 1787848701 | 30.56° C | 56% | 1016.1 hPa | 0 mm | - | 412 W/m² | - |
| 1787848397 | 28.89° C | 58% | 1016.5 hPa | 0 mm | - | 399 W/m² | - |
| 1787848091 | 30° C | 57% | 1016.1 hPa | 0 mm | - | 394 W/m² | - |
| 1787847790 | 29.44° C | 58% | 1016.5 hPa | 0 mm | - | 391 W/m² | - |
| 1787847485 | 28.89° C | 60% | 1016.5 hPa | 0 mm | - | 381 W/m² | - |
| 1787847175 | 28.89° C | 60% | 1016.5 hPa | 0 mm | - | 364 W/m² | - |
| 1787846871 | 28.33° C | 61% | 1016.5 hPa | 0 mm | - | 79 W/m² | - |
| 1787846566 | 28.89° C | 60% | 1016.1 hPa | 0 mm | - | 73 W/m² | - |
| 1787846261 | 28.33° C | 62% | 1016.5 hPa | 0 mm | - | 70 W/m² | - |
| 1787845958 | 27.78° C | 61% | 1016.1 hPa | 0 mm | - | 86 W/m² | - |
| 1787845653 | 27.78° C | 61% | 1016.5 hPa | 0 mm | - | 171 W/m² | - |
| 1787845352 | 27.78° C | 63% | 1016.5 hPa | 0 mm | - | 63 W/m² | - |
| 1787845049 | 27.22° C | 63% | 1016.8 hPa | 0 mm | - | 57 W/m² | - |
| 1787844744 | 27.22° C | 63% | 1016.5 hPa | 0 mm | - | 55 W/m² | - |
| 1787844443 | 27.22° C | 63% | 1016.5 hPa | 0 mm | - | 54 W/m² | - |
| 1787844138 | 26.67° C | 64% | 1016.5 hPa | 0 mm | - | 54 W/m² | - |
* Rain latest hour (hover to see other rain measurements)
** Current wind speed in m/s (hover to see current wind gust speed)